Japan Airlines Virtual Airport Information Service

Sydney Kingsford Smith Airport

ICAO: YSSY Country: Australia
Latitude: -33.9461 Longitude: 151.177
Latest Arrival : CPA111 (VHHH-YSSY) Latest Departure : CPA162 (YSSY-VHHH)


WX CaptureLIVE
Data provided by noaa.gov | Fetched at 17:13:37

METAR : YSSY 041634Z 16015G26KT 9999 -SHRA FEW025 SCT035 BKN045 18/13 Q1019

TAF : YSSY 041359Z 0414/0518 17014KT 9999 -SHRA BKN030 FM042200 15014KT 9999 NSW BKN035 FM050000 14018KT 9999 SCT040 FM050800 12010KT 9999 BKN035


Runway Data for YSSY
Data provided by openaviationdata.com

Runway ID Mag Var Hdg Length Elevation Surface ILS Freq ILS Id ILS Slope
7 13 61° 8292 ft 21 ft Asphalt 109.9 ISY 3
16L 13 154° 8011 ft 21 ft Asphalt 110.9 ISS 3
16R 13 154° 13022 ft 21 ft Asphalt 109.5 IKS 3
25 13 241° 8292 ft 21 ft Asphalt 109.7 ISW 3
34L 13 334° 13022 ft 21 ft Asphalt 110.1 ISN 3
34R 13 334° 8011 ft 21 ft Asphalt 109.3 IKN 3

Sydney Kingsford Smith Airport, Australia
Use only for reference purposes



Not for navigational purposes.